createdAt,value
2023-04-30T00:00:08.270Z,77.51
2023-04-30T00:01:08.214Z,77.71
2023-04-30T00:02:08.256Z,78.06
2023-04-30T00:03:08.317Z,77.81
2023-04-30T00:04:08.227Z,77.71
2023-04-30T00:05:08.154Z,77.75
2023-04-30T00:06:08.225Z,78.53
2023-04-30T00:07:08.137Z,78.88
2023-04-30T00:08:08.126Z,77.85
2023-04-30T00:09:08.143Z,78.27
2023-04-30T00:10:08.102Z,78.27
2023-04-30T00:11:08.118Z,78.16
2023-04-30T00:12:08.091Z,78.36
2023-04-30T00:13:08.072Z,78.57
2023-04-30T00:14:08.076Z,78.47
2023-04-30T00:15:08.057Z,78.47
2023-04-30T00:16:08.078Z,78.27
2023-04-30T00:17:08.051Z,78.36
2023-04-30T00:18:08.929Z,78.47
2023-04-30T00:19:08.007Z,78.40
2023-04-30T00:20:08.074Z,78.50
2023-04-30T00:21:08.000Z,78.40
2023-04-30T00:22:07.980Z,78.36
2023-04-30T00:23:07.979Z,78.57
2023-04-30T00:24:07.980Z,78.20
2023-04-30T00:25:07.967Z,78.47
2023-04-30T00:26:07.925Z,78.47
2023-04-30T00:27:08.826Z,78.61
2023-04-30T00:28:07.905Z,78.20
2023-04-30T00:29:07.890Z,78.20
2023-04-30T00:30:07.885Z,77.89
2023-04-30T00:31:07.873Z,77.85
2023-04-30T00:32:07.915Z,77.65
2023-04-30T00:33:07.943Z,77.78
2023-04-30T00:34:07.834Z,77.68
2023-04-30T00:35:07.823Z,77.89
2023-04-30T00:36:07.821Z,77.68
2023-04-30T00:37:07.821Z,77.99
2023-04-30T00:38:07.795Z,77.78
2023-04-30T00:39:07.787Z,77.68
2023-04-30T00:40:07.786Z,77.99
2023-04-30T00:41:07.780Z,78.71
2023-04-30T00:42:07.768Z,78.33
2023-04-30T00:43:07.736Z,78.50
2023-04-30T00:44:07.740Z,78.33
2023-04-30T00:45:07.725Z,78.75
2023-04-30T00:46:07.899Z,77.92
2023-04-30T00:47:07.711Z,78.13
2023-04-30T00:48:07.788Z,77.82
2023-04-30T00:49:07.672Z,78.64
2023-04-30T00:50:07.663Z,78.75
2023-04-30T00:51:07.679Z,77.82
2023-04-30T00:52:07.634Z,78.03
2023-04-30T00:53:07.684Z,77.62
2023-04-30T00:54:07.625Z,77.72
2023-04-30T00:55:07.610Z,78.03
2023-04-30T00:56:07.628Z,78.13
2023-04-30T00:57:07.613Z,77.72
2023-04-30T00:58:07.613Z,77.82
2023-04-30T00:59:07.560Z,78.13
2023-04-30T01:00:07.552Z,78.03
2023-04-30T01:01:07.595Z,78.13
2023-04-30T01:02:07.534Z,78.13
2023-04-30T01:03:07.652Z,78.64
2023-04-30T01:04:07.510Z,77.51
2023-04-30T01:05:07.520Z,77.20
2023-04-30T01:06:07.551Z,77.62
2023-04-30T01:07:07.465Z,77.45
2023-04-30T01:08:07.453Z,77.96
2023-04-30T01:09:07.474Z,77.45
2023-04-30T01:10:08.323Z,77.45
2023-04-30T01:11:07.413Z,77.45
2023-04-30T01:12:07.419Z,77.14
2023-04-30T01:13:07.422Z,77.03
2023-04-30T01:14:07.392Z,77.14
2023-04-30T01:15:07.375Z,77.34
2023-04-30T01:16:07.421Z,77.45
2023-04-30T01:17:07.362Z,77.55
2023-04-30T01:18:07.443Z,77.55
2023-04-30T01:19:07.410Z,77.55
2023-04-30T01:20:07.329Z,77.45
2023-04-30T01:21:07.307Z,77.65
2023-04-30T01:22:07.417Z,77.55
2023-04-30T01:23:07.310Z,77.65
2023-04-30T01:24:07.273Z,77.96
2023-04-30T01:25:07.270Z,78.20
2023-04-30T01:26:07.269Z,77.65
2023-04-30T01:27:07.257Z,77.86
2023-04-30T01:28:07.255Z,77.69
2023-04-30T01:29:07.241Z,78.17
2023-04-30T01:30:07.206Z,77.96
2023-04-30T01:31:07.224Z,78.89
2023-04-30T01:32:07.204Z,77.86
2023-04-30T01:33:07.205Z,77.86
2023-04-30T01:34:07.167Z,77.69
2023-04-30T01:35:07.165Z,78.17
2023-04-30T01:36:07.142Z,77.96
2023-04-30T01:37:07.149Z,77.75
2023-04-30T01:38:07.137Z,77.79
2023-04-30T01:39:07.107Z,77.55
2023-04-30T01:40:07.095Z,78.10
2023-04-30T01:41:07.092Z,77.89
2023-04-30T01:42:07.087Z,77.55
2023-04-30T01:43:07.081Z,77.58
2023-04-30T01:44:07.060Z,77.45
2023-04-30T01:45:07.056Z,77.89
2023-04-30T01:46:07.038Z,77.69
2023-04-30T01:47:07.047Z,78.30
2023-04-30T01:48:07.151Z,78.10
2023-04-30T01:49:06.997Z,78.61
2023-04-30T01:50:06.984Z,78.61
2023-04-30T01:51:06.976Z,78.51
2023-04-30T01:52:06.962Z,78.61
2023-04-30T01:53:06.967Z,78.30
2023-04-30T01:54:06.942Z,78.72
2023-04-30T01:55:06.945Z,78.30
2023-04-30T01:56:06.941Z,78.61
2023-04-30T01:57:06.931Z,78.61
2023-04-30T01:58:06.909Z,79.03
2023-04-30T01:59:06.889Z,79.27
2023-04-30T02:00:06.894Z,79.27
2023-04-30T02:01:06.929Z,79.64
2023-04-30T02:02:06.883Z,79.64
2023-04-30T02:03:06.990Z,79.23
2023-04-30T02:04:06.912Z,79.68
2023-04-30T02:05:07.353Z,79.47
2023-04-30T02:06:06.854Z,79.68
2023-04-30T02:07:06.825Z,79.79
2023-04-30T02:08:06.811Z,79.99
2023-04-30T02:09:06.798Z,80.09
2023-04-30T02:10:06.782Z,79.88
2023-04-30T02:11:06.762Z,80.30
2023-04-30T02:12:06.743Z,80.61
2023-04-30T02:13:06.729Z,80.71
2023-04-30T02:14:06.767Z,80.30
2023-04-30T02:15:06.714Z,80.40
2023-04-30T02:16:06.732Z,80.71
2023-04-30T02:17:06.750Z,80.71
2023-04-30T02:18:06.723Z,80.51
2023-04-30T02:19:06.718Z,80.61
2023-04-30T02:20:06.646Z,80.61
2023-04-30T02:21:06.635Z,80.61
2023-04-30T02:22:06.637Z,81.12
2023-04-30T02:23:06.652Z,80.81
2023-04-30T02:24:06.603Z,81.12
2023-04-30T02:25:06.592Z,81.02
2023-04-30T02:26:06.582Z,81.02
2023-04-30T02:27:06.583Z,81.02
2023-04-30T02:28:06.580Z,81.02
2023-04-30T02:29:06.544Z,81.23
2023-04-30T02:30:06.536Z,81.16
2023-04-30T02:31:06.526Z,81.12
2023-04-30T02:32:06.517Z,81.02
2023-04-30T02:33:06.589Z,80.81
2023-04-30T02:34:06.504Z,81.16
2023-04-30T02:35:06.482Z,81.05
2023-04-30T02:36:06.491Z,81.05
2023-04-30T02:37:06.492Z,81.05
2023-04-30T02:38:06.446Z,81.23
2023-04-30T02:39:06.439Z,81.02
2023-04-30T02:40:06.427Z,81.02
2023-04-30T02:41:06.430Z,81.12
2023-04-30T02:42:06.416Z,81.23
2023-04-30T02:43:06.428Z,81.47
2023-04-30T02:44:06.376Z,81.57
2023-04-30T02:45:06.380Z,81.67
2023-04-30T02:46:06.413Z,81.57
2023-04-30T02:47:06.344Z,81.77
2023-04-30T02:48:06.568Z,81.88
2023-04-30T02:49:06.347Z,81.88
2023-04-30T02:50:06.335Z,81.88
2023-04-30T02:51:06.320Z,82.02
2023-04-30T02:52:06.298Z,82.12
2023-04-30T02:53:06.274Z,82.02
2023-04-30T02:54:06.264Z,81.92
2023-04-30T02:55:06.271Z,82.33
2023-04-30T02:56:06.243Z,82.43
2023-04-30T02:57:06.242Z,82.43
2023-04-30T02:58:06.217Z,82.54
2023-04-30T02:59:06.214Z,82.33
2023-04-30T03:00:06.868Z,82.23
2023-04-30T03:01:06.223Z,82.12
2023-04-30T03:02:06.217Z,82.33
2023-04-30T03:03:06.285Z,82.74
2023-04-30T03:04:06.179Z,82.54
2023-04-30T03:05:06.190Z,82.74
2023-04-30T03:06:06.170Z,82.54
2023-04-30T03:07:06.132Z,82.54
2023-04-30T03:08:06.109Z,82.54
2023-04-30T03:09:06.106Z,82.64
2023-04-30T03:10:06.103Z,83.05
2023-04-30T03:11:06.076Z,82.74
2023-04-30T03:12:06.062Z,82.95
2023-04-30T03:13:06.057Z,83.26
2023-04-30T03:14:06.050Z,83.19
2023-04-30T03:15:06.047Z,83.29
2023-04-30T03:16:06.049Z,83.61
2023-04-30T03:17:06.042Z,83.26
2023-04-30T03:18:06.056Z,83.09
2023-04-30T03:19:06.029Z,83.05
2023-04-30T03:20:06.006Z,83.19
2023-04-30T03:21:05.990Z,83.09
2023-04-30T03:22:05.958Z,83.19
2023-04-30T03:23:05.945Z,83.19
2023-04-30T03:24:05.953Z,83.29
2023-04-30T03:25:05.939Z,83.29
2023-04-30T03:26:05.920Z,83.09
2023-04-30T03:27:05.919Z,83.19
2023-04-30T03:28:05.909Z,83.26
2023-04-30T03:29:05.989Z,83.29
2023-04-30T03:30:05.884Z,83.29
2023-04-30T03:31:05.928Z,83.40
2023-04-30T03:32:05.867Z,83.19
2023-04-30T03:33:05.921Z,83.40
2023-04-30T03:34:05.827Z,83.29
2023-04-30T03:35:05.823Z,82.98
2023-04-30T03:36:05.807Z,82.98
2023-04-30T03:37:05.828Z,83.29
2023-04-30T03:38:05.797Z,82.98
2023-04-30T03:39:05.777Z,83.09
2023-04-30T03:40:05.762Z,82.98
2023-04-30T03:41:05.798Z,83.09
2023-04-30T03:42:05.776Z,82.98
2023-04-30T03:43:05.764Z,83.09
2023-04-30T03:44:05.713Z,82.98
2023-04-30T03:45:05.719Z,83.09
2023-04-30T03:46:05.771Z,83.09
2023-04-30T03:47:05.682Z,83.19
2023-04-30T03:48:05.732Z,82.98
2023-04-30T03:49:05.668Z,83.09
2023-04-30T03:50:05.706Z,83.29
2023-04-30T03:51:05.638Z,83.09
2023-04-30T03:52:05.648Z,82.98
2023-04-30T03:53:05.671Z,82.98
2023-04-30T03:54:05.624Z,82.89
2023-04-30T03:55:05.595Z,82.89
2023-04-30T03:56:05.583Z,82.98
2023-04-30T03:57:05.647Z,83.09
2023-04-30T03:58:05.607Z,82.68
2023-04-30T03:59:05.556Z,82.78
2023-04-30T04:00:05.549Z,83.09
2023-04-30T04:01:05.525Z,82.57
2023-04-30T04:02:06.390Z,82.57
2023-04-30T04:03:05.636Z,82.57
2023-04-30T04:04:05.584Z,82.68
2023-04-30T04:05:05.487Z,82.47
2023-04-30T04:06:05.596Z,82.57
2023-04-30T04:07:05.459Z,82.57
2023-04-30T04:08:05.464Z,82.68
2023-04-30T04:09:05.489Z,82.57
2023-04-30T04:10:05.426Z,82.68
2023-04-30T04:11:05.424Z,82.47
2023-04-30T04:12:05.477Z,82.78
2023-04-30T04:13:05.417Z,82.89
2023-04-30T04:14:05.892Z,82.89
2023-04-30T04:15:05.398Z,82.78
2023-04-30T04:16:05.431Z,82.68
2023-04-30T04:17:05.371Z,82.47
2023-04-30T04:18:05.354Z,82.37
2023-04-30T04:19:05.349Z,82.68
2023-04-30T04:20:05.316Z,82.47
2023-04-30T04:21:05.315Z,82.57
2023-04-30T04:22:05.293Z,82.89
2023-04-30T04:23:05.348Z,82.37
2023-04-30T04:24:05.272Z,82.57
2023-04-30T04:25:05.295Z,82.57
2023-04-30T04:26:05.270Z,82.57
2023-04-30T04:27:05.242Z,82.43
2023-04-30T04:28:05.262Z,82.68
2023-04-30T04:29:05.220Z,82.57
2023-04-30T04:30:05.216Z,82.78
2023-04-30T04:31:05.198Z,82.57
2023-04-30T04:32:05.230Z,82.57
2023-04-30T04:33:05.248Z,82.37
2023-04-30T04:34:05.159Z,82.37
2023-04-30T04:35:05.151Z,82.37
2023-04-30T04:36:05.187Z,82.26
2023-04-30T04:37:05.171Z,82.26
2023-04-30T04:38:05.370Z,82.26
2023-04-30T04:39:05.127Z,82.26
2023-04-30T04:40:05.129Z,82.37
2023-04-30T04:41:05.119Z,82.06
2023-04-30T04:42:05.224Z,82.12
2023-04-30T04:43:05.061Z,82.26
2023-04-30T04:44:05.049Z,82.43
2023-04-30T04:45:05.034Z,82.37
2023-04-30T04:46:05.065Z,82.64
2023-04-30T04:47:05.016Z,82.47
2023-04-30T04:48:05.224Z,82.54
2023-04-30T04:49:05.020Z,82.37
2023-04-30T04:50:05.174Z,81.81
2023-04-30T04:51:04.994Z,81.85
2023-04-30T04:52:04.967Z,81.92
2023-04-30T04:53:04.948Z,81.40
2023-04-30T04:54:04.960Z,81.61
2023-04-30T04:55:04.954Z,81.71
2023-04-30T04:56:04.945Z,81.09
2023-04-30T04:57:04.935Z,81.40
2023-04-30T04:58:04.888Z,81.81
2023-04-30T04:59:04.898Z,81.30
2023-04-30T05:00:04.867Z,81.20
2023-04-30T05:01:04.864Z,80.99
2023-04-30T05:02:04.942Z,80.89
2023-04-30T05:03:04.911Z,81.09
2023-04-30T05:04:05.003Z,80.89
2023-04-30T05:05:04.829Z,81.09
2023-04-30T05:06:04.888Z,80.58
2023-04-30T05:07:04.801Z,80.58
2023-04-30T05:08:04.778Z,80.68
2023-04-30T05:09:04.770Z,80.58
2023-04-30T05:10:04.783Z,80.68
2023-04-30T05:11:04.749Z,80.54
2023-04-30T05:12:04.756Z,80.75
2023-04-30T05:13:04.742Z,80.65
2023-04-30T05:14:04.713Z,80.27
2023-04-30T05:15:04.719Z,79.72
2023-04-30T05:16:04.789Z,79.72
2023-04-30T05:17:04.775Z,79.82
2023-04-30T05:18:04.720Z,79.30
2023-04-30T05:19:04.765Z,80.23
2023-04-30T05:20:04.658Z,80.06
2023-04-30T05:21:04.637Z,79.93
2023-04-30T05:22:04.623Z,79.72
2023-04-30T05:23:04.613Z,79.51
2023-04-30T05:24:04.635Z,80.02
2023-04-30T05:25:04.591Z,80.02
2023-04-30T05:26:04.586Z,80.13
2023-04-30T05:27:04.563Z,79.51
2023-04-30T05:28:04.556Z,79.58
2023-04-30T05:29:04.569Z,79.27
2023-04-30T05:30:04.566Z,79.20
2023-04-30T05:31:04.535Z,79.20
2023-04-30T05:32:04.554Z,79.06
2023-04-30T05:33:04.535Z,78.55
2023-04-30T05:34:04.496Z,78.89
2023-04-30T05:35:04.514Z,78.55
2023-04-30T05:36:05.383Z,78.75
2023-04-30T05:37:04.453Z,78.55
2023-04-30T05:38:04.474Z,78.55
2023-04-30T05:39:04.438Z,78.75
2023-04-30T05:40:04.443Z,78.55
2023-04-30T05:41:04.431Z,78.30
2023-04-30T05:42:04.403Z,78.51
2023-04-30T05:43:04.395Z,78.72
2023-04-30T05:44:04.381Z,77.38
2023-04-30T05:45:04.420Z,76.97
2023-04-30T05:46:04.410Z,76.97
2023-04-30T05:47:04.355Z,76.76
2023-04-30T05:48:04.360Z,76.66
2023-04-30T05:49:04.339Z,76.62
2023-04-30T05:50:04.345Z,77.14
2023-04-30T05:51:04.300Z,76.73
2023-04-30T05:52:04.286Z,76.31
2023-04-30T05:53:04.301Z,76.69
2023-04-30T05:54:04.293Z,76.69
2023-04-30T05:55:12.056Z,76.59
2023-04-30T05:56:04.247Z,75.21
2023-04-30T05:57:04.937Z,75.52
2023-04-30T05:58:04.226Z,75.18
2023-04-30T05:59:04.230Z,74.98
2023-04-30T06:00:04.224Z,74.05
2023-04-30T06:01:04.209Z,73.50
2023-04-30T06:02:04.329Z,73.19
2023-04-30T06:03:04.231Z,72.99
2023-04-30T06:04:04.176Z,72.78
2023-04-30T06:05:04.254Z,72.44
2023-04-30T06:06:04.171Z,72.20
2023-04-30T06:07:04.120Z,71.39
2023-04-30T06:08:04.118Z,71.08
2023-04-30T06:09:04.103Z,71.08
2023-04-30T06:10:04.115Z,70.29
2023-04-30T06:11:04.104Z,70.19
2023-04-30T06:12:04.084Z,69.98
2023-04-30T06:13:04.084Z,69.03
2023-04-30T06:14:04.060Z,68.93
2023-04-30T06:15:04.060Z,69.10
2023-04-30T06:16:04.093Z,68.18
2023-04-30T06:17:04.947Z,67.13
2023-04-30T06:18:04.032Z,66.38
2023-04-30T06:19:04.024Z,65.36
2023-04-30T06:20:03.982Z,64.54
2023-04-30T06:21:03.977Z,64.92
2023-04-30T06:22:03.961Z,64.37
2023-04-30T06:23:04.084Z,63.32
2023-04-30T06:24:03.966Z,62.88
2023-04-30T06:25:03.956Z,62.65
2023-04-30T06:26:04.064Z,61.30
2023-04-30T06:27:03.904Z,60.76
2023-04-30T06:28:03.891Z,59.51
2023-04-30T06:29:03.880Z,58.64
2023-04-30T06:30:03.885Z,57.72
2023-04-30T06:31:03.905Z,57.67
2023-04-30T06:32:04.292Z,57.34
2023-04-30T06:33:04.086Z,56.16
2023-04-30T06:34:03.837Z,55.60
2023-04-30T06:35:03.832Z,53.14
2023-04-30T06:36:03.801Z,53.70
2023-04-30T06:37:03.803Z,52.74
2023-04-30T06:38:03.848Z,51.20
2023-04-30T06:39:03.852Z,50.46
2023-04-30T06:40:03.780Z,49.51
2023-04-30T06:41:03.745Z,48.65
2023-04-30T06:42:03.737Z,47.82
2023-04-30T06:43:03.718Z,47.67
2023-04-30T06:44:03.748Z,46.42
2023-04-30T06:45:03.755Z,44.97
2023-04-30T06:46:03.724Z,44.53
2023-04-30T06:47:03.692Z,43.58
2023-04-30T06:48:03.707Z,42.16
2023-04-30T06:49:03.679Z,41.61
2023-04-30T06:50:03.703Z,40.49
2023-04-30T06:51:03.640Z,40.35
2023-04-30T06:52:03.633Z,39.33
2023-04-30T06:53:03.609Z,38.91
2023-04-30T06:54:03.599Z,39.20
2023-04-30T06:55:03.580Z,38.16
2023-04-30T06:56:03.590Z,37.54
2023-04-30T06:57:03.563Z,36.80
2023-04-30T06:58:03.555Z,35.59
2023-04-30T06:59:03.543Z,35.49
2023-04-30T07:00:03.550Z,35.77
2023-04-30T07:01:03.596Z,35.17
2023-04-30T07:02:03.512Z,34.36
2023-04-30T07:03:03.691Z,33.45
2023-04-30T07:04:03.484Z,33.65
2023-04-30T07:05:03.530Z,33.23
2023-04-30T07:06:03.507Z,33.00
2023-04-30T07:07:03.470Z,32.48
2023-04-30T07:08:03.436Z,31.85
2023-04-30T07:09:03.468Z,31.34
2023-04-30T07:10:03.420Z,30.83
2023-04-30T07:11:03.404Z,30.33
2023-04-30T07:12:03.395Z,31.32
2023-04-30T07:13:03.379Z,30.62
2023-04-30T07:14:03.405Z,30.30
2023-04-30T07:15:03.397Z,30.67
2023-04-30T07:16:03.369Z,29.77
2023-04-30T07:17:03.341Z,29.24
2023-04-30T07:18:03.384Z,28.74
2023-04-30T07:19:03.317Z,28.02
2023-04-30T07:20:03.334Z,27.50
2023-04-30T07:21:03.366Z,27.09
2023-04-30T07:22:03.287Z,26.37
2023-04-30T07:23:03.270Z,26.65
2023-04-30T07:24:03.276Z,25.28
2023-04-30T07:25:03.248Z,25.37
2023-04-30T07:26:03.236Z,24.97
2023-04-30T07:27:03.224Z,24.66
2023-04-30T07:28:03.946Z,24.47
2023-04-30T07:29:03.209Z,24.05
2023-04-30T07:30:03.198Z,24.82
2023-04-30T07:31:03.205Z,23.84
2023-04-30T07:32:03.374Z,24.14
2023-04-30T07:33:03.298Z,24.14
2023-04-30T07:34:03.160Z,24.13
2023-04-30T07:35:03.139Z,23.93
2023-04-30T07:36:03.149Z,23.63
2023-04-30T07:37:03.320Z,23.03
2023-04-30T07:38:03.118Z,23.53
2023-04-30T07:39:03.094Z,24.96
2023-04-30T07:40:03.145Z,23.68
2023-04-30T07:41:03.094Z,23.47
2023-04-30T07:42:03.065Z,22.98
2023-04-30T07:43:03.053Z,23.08
2023-04-30T07:44:03.041Z,23.07
2023-04-30T07:45:03.042Z,22.88
2023-04-30T07:46:03.049Z,22.96
2023-04-30T07:47:03.009Z,23.35
2023-04-30T07:48:03.105Z,22.85
2023-04-30T07:49:02.986Z,22.83
2023-04-30T07:50:02.980Z,23.03
2023-04-30T07:51:02.986Z,23.24
2023-04-30T07:52:02.952Z,23.13
2023-04-30T07:53:02.964Z,22.84
2023-04-30T07:54:02.948Z,23.07
2023-04-30T07:55:02.948Z,23.35
2023-04-30T07:56:02.912Z,22.75
2023-04-30T07:57:02.912Z,23.46
2023-04-30T07:58:02.960Z,24.29
2023-04-30T07:59:02.893Z,24.66
2023-04-30T08:00:02.891Z,23.56
2023-04-30T08:01:02.860Z,22.86
2023-04-30T08:02:02.890Z,22.67
2023-04-30T08:03:02.900Z,23.32
2023-04-30T08:04:02.925Z,24.73
2023-04-30T08:05:02.813Z,24.41
2023-04-30T08:06:02.909Z,23.31
2023-04-30T08:07:02.817Z,23.22
2023-04-30T08:08:02.791Z,22.33
2023-04-30T08:09:02.789Z,21.90
2023-04-30T08:10:02.782Z,21.89
2023-04-30T08:11:02.902Z,22.28
2023-04-30T08:12:02.753Z,21.29
2023-04-30T08:13:02.731Z,20.90
2023-04-30T08:14:02.722Z,19.51
2023-04-30T08:15:02.709Z,19.51
2023-04-30T08:16:02.734Z,20.00
2023-04-30T08:17:02.740Z,20.09
2023-04-30T08:18:02.800Z,19.59
2023-04-30T08:19:02.670Z,19.57
2023-04-30T08:20:02.661Z,18.38
2023-04-30T08:21:02.650Z,19.17
2023-04-30T08:22:02.656Z,19.47
2023-04-30T08:23:02.631Z,19.35
2023-04-30T08:24:02.611Z,19.06
2023-04-30T08:25:02.619Z,19.54
2023-04-30T08:26:02.593Z,18.65
2023-04-30T08:27:02.601Z,19.32
2023-04-30T08:28:02.572Z,17.96
2023-04-30T08:29:02.591Z,19.11
2023-04-30T08:30:02.559Z,17.84
2023-04-30T08:31:02.536Z,18.55
2023-04-30T08:32:02.562Z,18.66
2023-04-30T08:33:03.502Z,18.55
2023-04-30T08:34:02.524Z,17.96
2023-04-30T08:35:02.507Z,18.44
2023-04-30T08:36:02.480Z,19.14
2023-04-30T08:37:02.493Z,19.13
2023-04-30T08:38:02.552Z,19.03
2023-04-30T08:39:02.464Z,18.44
2023-04-30T08:40:02.454Z,18.74
2023-04-30T08:41:02.451Z,18.54
2023-04-30T08:42:02.444Z,18.52
2023-04-30T08:43:02.552Z,18.70
2023-04-30T08:44:02.425Z,17.43
2023-04-30T08:45:02.440Z,18.21
2023-04-30T08:46:02.435Z,17.71
2023-04-30T08:47:02.385Z,17.11
2023-04-30T08:48:02.412Z,17.40
2023-04-30T08:49:02.375Z,17.23
2023-04-30T08:50:02.340Z,18.01
2023-04-30T08:51:02.322Z,17.30
2023-04-30T08:52:02.381Z,15.92
2023-04-30T08:53:02.326Z,14.56
2023-04-30T08:54:02.309Z,14.56
2023-04-30T08:55:02.288Z,15.24
2023-04-30T08:56:02.273Z,15.44
2023-04-30T08:57:02.293Z,15.54
2023-04-30T08:58:02.273Z,16.05
2023-04-30T08:59:02.240Z,15.67
2023-04-30T09:00:02.260Z,16.93
2023-04-30T09:01:02.235Z,16.63
2023-04-30T09:02:02.429Z,17.00
2023-04-30T09:03:02.297Z,16.12
2023-04-30T09:04:02.302Z,17.00
2023-04-30T09:05:02.188Z,16.81
2023-04-30T09:06:02.191Z,16.91
2023-04-30T09:07:04.427Z,16.71
2023-04-30T09:08:04.154Z,15.64
2023-04-30T09:09:02.140Z,15.55
2023-04-30T09:10:02.131Z,15.66
2023-04-30T09:11:02.133Z,16.53
2023-04-30T09:12:02.112Z,16.22
2023-04-30T09:13:02.136Z,16.02
2023-04-30T09:14:02.092Z,15.62
2023-04-30T09:15:02.087Z,16.02
2023-04-30T09:16:02.100Z,15.25
2023-04-30T09:17:02.062Z,15.44
2023-04-30T09:18:02.100Z,15.14
2023-04-30T09:19:02.045Z,15.14
2023-04-30T09:20:02.031Z,14.36
2023-04-30T09:21:02.047Z,14.94
2023-04-30T09:22:02.021Z,15.51
2023-04-30T09:23:02.099Z,14.92
2023-04-30T09:24:01.994Z,14.43
2023-04-30T09:25:02.002Z,14.72
2023-04-30T09:26:01.963Z,14.62
2023-04-30T09:27:01.959Z,14.73
2023-04-30T09:28:01.964Z,14.73
2023-04-30T09:29:01.959Z,15.01
2023-04-30T09:30:01.950Z,14.81
2023-04-30T09:31:01.957Z,14.23
2023-04-30T09:32:02.014Z,14.03
2023-04-30T09:33:02.023Z,13.35
2023-04-30T09:34:01.892Z,13.45
2023-04-30T09:35:01.922Z,13.35
2023-04-30T09:36:01.879Z,14.34
2023-04-30T09:37:01.872Z,14.14
2023-04-30T09:38:01.878Z,13.66
2023-04-30T09:39:01.841Z,12.88
2023-04-30T09:40:01.868Z,13.86
2023-04-30T09:41:01.898Z,12.88
2023-04-30T09:42:01.834Z,12.89
2023-04-30T09:43:01.806Z,13.86
2023-04-30T09:44:01.828Z,13.76
2023-04-30T09:45:02.031Z,13.16
2023-04-30T09:46:01.805Z,13.35
2023-04-30T09:47:01.800Z,13.06
2023-04-30T09:48:15.806Z,13.15
2023-04-30T09:49:02.777Z,13.43
2023-04-30T09:50:01.744Z,13.34
2023-04-30T09:51:01.717Z,13.82
2023-04-30T09:52:01.756Z,12.66
2023-04-30T09:53:01.699Z,13.34
2023-04-30T09:54:01.696Z,13.53
2023-04-30T09:55:01.692Z,14.97
2023-04-30T09:56:01.674Z,13.32
2023-04-30T09:57:02.186Z,12.55
2023-04-30T09:58:01.659Z,13.63
2023-04-30T09:59:02.512Z,13.84
2023-04-30T10:00:01.675Z,13.65
2023-04-30T10:01:01.881Z,14.35
2023-04-30T10:02:01.663Z,14.36
2023-04-30T10:03:01.672Z,14.54
2023-04-30T10:04:01.761Z,14.45
2023-04-30T10:05:01.586Z,14.64
2023-04-30T10:06:01.619Z,14.74
2023-04-30T10:07:01.587Z,13.48
2023-04-30T10:08:01.582Z,13.47
2023-04-30T10:09:01.640Z,13.86
2023-04-30T10:10:01.539Z,13.28
2023-04-30T10:11:01.547Z,13.37
2023-04-30T10:12:01.526Z,13.07
2023-04-30T10:13:01.554Z,13.93
2023-04-30T10:14:01.499Z,12.76
2023-04-30T10:15:01.495Z,12.56
2023-04-30T10:16:01.499Z,12.27
2023-04-30T10:17:01.507Z,12.85
2023-04-30T10:18:01.516Z,12.36
2023-04-30T10:19:01.465Z,12.54
2023-04-30T10:20:01.468Z,11.96
2023-04-30T10:21:01.441Z,12.64
2023-04-30T10:22:01.420Z,12.26
2023-04-30T10:23:01.414Z,12.36
2023-04-30T10:24:01.426Z,12.26
2023-04-30T10:25:01.392Z,12.85
2023-04-30T10:26:01.394Z,12.76
2023-04-30T10:27:01.372Z,13.05
2023-04-30T10:28:03.973Z,12.77
2023-04-30T10:29:01.413Z,13.06
2023-04-30T10:30:01.410Z,12.66
2023-04-30T10:31:01.342Z,12.37
2023-04-30T10:32:01.400Z,12.18
2023-04-30T10:33:02.008Z,13.15
2023-04-30T10:34:01.318Z,13.06
2023-04-30T10:35:01.345Z,12.47
2023-04-30T10:36:01.316Z,12.66
2023-04-30T10:37:01.296Z,12.87
2023-04-30T10:38:01.270Z,12.58
2023-04-30T10:39:01.285Z,12.97
2023-04-30T10:40:01.254Z,12.58
2023-04-30T10:41:01.274Z,13.07
2023-04-30T10:42:01.226Z,12.00
2023-04-30T10:43:01.223Z,12.40
2023-04-30T10:44:02.106Z,13.17
2023-04-30T10:45:01.252Z,12.49
2023-04-30T10:46:01.300Z,12.30
2023-04-30T10:47:01.199Z,12.99
2023-04-30T10:48:01.257Z,13.10
2023-04-30T10:49:01.183Z,13.89
2023-04-30T10:50:01.151Z,13.31
2023-04-30T10:51:01.183Z,13.98
2023-04-30T10:52:01.158Z,13.70
2023-04-30T10:53:01.129Z,12.92
2023-04-30T10:54:01.149Z,13.49
2023-04-30T10:55:01.108Z,12.81
2023-04-30T10:56:01.109Z,14.07
2023-04-30T10:57:01.085Z,13.20
2023-04-30T10:58:01.109Z,13.40
2023-04-30T10:59:01.095Z,12.71
2023-04-30T11:00:01.119Z,14.09
2023-04-30T11:01:01.140Z,13.62
2023-04-30T11:02:01.253Z,13.92
2023-04-30T11:03:01.058Z,13.91
2023-04-30T11:04:01.191Z,13.90
2023-04-30T11:05:01.055Z,14.09
2023-04-30T11:06:01.056Z,13.70
2023-04-30T11:07:00.996Z,13.98
2023-04-30T11:08:00.987Z,13.89
2023-04-30T11:09:01.012Z,13.89
2023-04-30T11:10:00.969Z,13.79
2023-04-30T11:11:00.953Z,13.32
2023-04-30T11:12:00.955Z,13.53
2023-04-30T11:13:01.737Z,14.12
2023-04-30T11:14:01.030Z,13.92
2023-04-30T11:15:00.938Z,14.81
2023-04-30T11:16:00.932Z,14.90
2023-04-30T11:17:00.897Z,15.09
2023-04-30T11:18:01.048Z,14.51
2023-04-30T11:19:00.920Z,14.22
2023-04-30T11:20:00.874Z,14.12
2023-04-30T11:21:00.890Z,14.22
2023-04-30T11:22:00.857Z,14.82
2023-04-30T11:23:00.856Z,15.12
2023-04-30T11:24:00.879Z,15.04
2023-04-30T11:25:00.826Z,15.16
2023-04-30T11:26:00.818Z,14.49
2023-04-30T11:27:00.823Z,16.17
2023-04-30T11:28:00.800Z,15.77
2023-04-30T11:29:00.842Z,15.97
2023-04-30T11:30:00.837Z,16.36
2023-04-30T11:31:00.812Z,15.98
2023-04-30T11:32:00.821Z,15.58
2023-04-30T11:33:00.861Z,17.55
2023-04-30T11:34:00.764Z,17.05
2023-04-30T11:35:00.733Z,16.47
2023-04-30T11:36:00.734Z,17.17
2023-04-30T11:37:00.882Z,17.39
2023-04-30T11:38:00.701Z,18.67
2023-04-30T11:39:00.848Z,18.29
2023-04-30T11:40:00.712Z,17.69
2023-04-30T11:41:00.691Z,18.00
2023-04-30T11:42:00.730Z,18.70
2023-04-30T11:43:00.668Z,19.21
2023-04-30T11:44:00.661Z,18.62
2023-04-30T11:45:00.655Z,19.62
2023-04-30T11:46:00.632Z,19.54
2023-04-30T11:47:00.717Z,19.54
2023-04-30T11:48:00.682Z,18.75
2023-04-30T11:49:00.609Z,19.44
2023-04-30T11:50:00.616Z,19.74
2023-04-30T11:51:00.578Z,19.34
2023-04-30T11:52:00.585Z,19.15
2023-04-30T11:53:00.587Z,19.47
2023-04-30T11:54:00.586Z,21.37
2023-04-30T11:55:00.563Z,20.07
2023-04-30T11:56:10.059Z,20.27
2023-04-30T11:57:00.524Z,21.48
2023-04-30T11:58:00.519Z,21.70
2023-04-30T11:59:00.511Z,20.70
2023-04-30T12:00:00.514Z,21.29
2023-04-30T12:01:00.487Z,20.39
2023-04-30T12:02:00.494Z,20.67
2023-04-30T12:03:00.783Z,21.05
2023-04-30T12:04:00.641Z,19.57
2023-04-30T12:05:00.477Z,21.25
2023-04-30T12:06:00.544Z,20.46
2023-04-30T12:07:00.486Z,20.30
2023-04-30T12:08:00.427Z,21.92
2023-04-30T12:09:00.634Z,22.50
2023-04-30T12:10:00.475Z,21.41
2023-04-30T12:11:00.436Z,22.38
2023-04-30T12:12:00.386Z,21.09
2023-04-30T12:13:00.381Z,21.40
2023-04-30T12:14:00.365Z,20.81
2023-04-30T12:15:00.372Z,21.01
2023-04-30T12:16:00.353Z,20.52
2023-04-30T12:17:00.436Z,22.02
2023-04-30T12:18:00.454Z,21.11
2023-04-30T12:19:00.326Z,21.92
2023-04-30T12:20:00.333Z,22.50
2023-04-30T12:21:00.300Z,21.51
2023-04-30T12:22:00.300Z,22.41
2023-04-30T12:23:00.299Z,21.52
2023-04-30T12:24:02.755Z,21.73
2023-04-30T12:25:00.304Z,22.05
2023-04-30T12:26:00.251Z,23.37
2023-04-30T12:27:01.081Z,23.79
2023-04-30T12:28:00.233Z,25.28
2023-04-30T12:29:00.528Z,28.03
2023-04-30T12:30:00.245Z,27.85
2023-04-30T12:31:00.206Z,28.85
2023-04-30T12:32:00.276Z,27.62
2023-04-30T12:33:05.183Z,28.32
2023-04-30T12:34:00.182Z,27.53
2023-04-30T12:35:00.344Z,28.59
2023-04-30T12:36:00.192Z,29.50
2023-04-30T12:37:00.172Z,29.98
2023-04-30T12:38:00.145Z,27.64
2023-04-30T12:39:00.142Z,27.91
2023-04-30T12:40:00.144Z,27.31
2023-04-30T12:41:01.351Z,27.09
2023-04-30T12:42:00.156Z,27.29
2023-04-30T12:43:00.113Z,27.09
2023-04-30T12:44:00.142Z,27.78
2023-04-30T12:45:00.075Z,27.28
2023-04-30T12:46:00.163Z,26.50
2023-04-30T12:47:00.052Z,28.86
2023-04-30T12:48:00.088Z,29.13
2023-04-30T12:49:00.046Z,31.49
2023-04-30T12:50:00.034Z,31.96
2023-04-30T12:51:00.100Z,31.07
2023-04-30T12:52:00.562Z,30.99